createdAt,value
2022-12-17T00:01:58.435Z,96453.09
2022-12-17T00:04:44.947Z,96463.25
2022-12-17T00:07:31.808Z,96462.78
2022-12-17T00:10:17.949Z,96468.75
2022-12-17T00:13:06.213Z,96466.91
2022-12-17T00:15:53.061Z,96472.88
2022-12-17T00:18:40.727Z,96474.88
2022-12-17T00:21:28.006Z,96479.56
2022-12-17T00:24:14.428Z,96490.84
2022-12-17T00:27:00.268Z,96482.38
2022-12-17T00:29:46.624Z,96492.50
2022-12-17T00:32:32.697Z,96492.16
2022-12-17T00:35:20.588Z,96494.34
2022-12-17T00:38:06.412Z,96501.31
2022-12-17T00:40:52.719Z,96508.13
2022-12-17T00:43:40.063Z,96506.66
2022-12-17T00:46:26.327Z,96514.81
2022-12-17T00:49:12.498Z,96516.13
2022-12-17T00:52:00.056Z,96511.16
2022-12-17T00:54:45.755Z,96519.13
2022-12-17T00:57:32.011Z,96524.09
2022-12-17T01:00:17.766Z,96511.84
2022-12-17T01:03:04.927Z,96544.41
2022-12-17T01:05:50.686Z,96541.91
2022-12-17T01:08:38.671Z,96541.56
2022-12-17T01:11:26.395Z,96540.75
2022-12-17T01:14:12.744Z,96536.59
2022-12-17T01:16:58.698Z,96544.94
2022-12-17T01:19:45.081Z,96553.06
2022-12-17T01:22:31.502Z,96551.41
2022-12-17T01:25:20.517Z,96559.91
2022-12-17T01:28:07.352Z,96566.19
2022-12-17T01:30:55.665Z,96543.78
2022-12-17T01:33:41.570Z,96570.84
2022-12-17T01:36:28.337Z,96577.16
2022-12-17T01:39:23.658Z,96581.66
2022-12-17T01:42:11.768Z,96580.16
2022-12-17T01:45:11.356Z,96582.47
2022-12-17T01:48:00.747Z,96580.13
2022-12-17T01:50:50.265Z,96587.09
2022-12-17T01:53:41.520Z,96577.47
2022-12-17T01:56:28.703Z,96587.78
2022-12-17T01:59:17.182Z,96579.00
2022-12-17T02:02:03.772Z,96590.28
2022-12-17T02:04:50.526Z,96594.94
2022-12-17T02:07:52.980Z,96592.28
2022-12-17T02:10:44.838Z,96594.75
2022-12-17T02:13:37.419Z,96597.25
2022-12-17T02:16:28.941Z,96601.56
2022-12-17T02:19:18.830Z,96598.25
2022-12-17T02:22:27.307Z,96600.56
2022-12-17T02:25:21.423Z,96613.72
2022-12-17T02:28:20.605Z,96609.53
2022-12-17T02:31:06.816Z,96614.69
2022-12-17T02:33:50.370Z,96614.22
2022-12-17T02:36:36.166Z,96615.03
2022-12-17T02:39:28.552Z,96616.34
2022-12-17T02:42:16.342Z,96624.66
2022-12-17T02:45:05.119Z,96627.31
2022-12-17T02:47:51.479Z,96624.13
2022-12-17T02:50:37.378Z,96622.81
2022-12-17T02:53:23.200Z,96624.66
2022-12-17T02:56:09.517Z,96628.97
2022-12-17T02:58:57.219Z,96635.94
2022-12-17T03:01:44.576Z,96638.59
2022-12-17T03:04:31.106Z,96644.28
2022-12-17T03:07:16.977Z,96643.44
2022-12-17T03:10:02.753Z,96657.75
2022-12-17T03:12:51.545Z,96655.38
2022-12-17T03:15:37.557Z,96665.53
2022-12-17T03:18:24.823Z,96664.00
2022-12-17T03:21:12.257Z,96637.56
2022-12-17T03:24:10.301Z,96665.00
2022-12-17T03:26:56.901Z,96668.00
2022-12-17T03:29:42.933Z,96676.00
2022-12-17T03:32:29.401Z,96671.34
2022-12-17T03:35:16.893Z,96672.31
2022-12-17T03:38:03.678Z,96676.97
2022-12-17T03:40:49.515Z,96684.78
2022-12-17T03:43:37.091Z,96680.28
2022-12-17T03:46:23.373Z,96692.75
2022-12-17T03:49:09.841Z,96686.94
2022-12-17T03:51:57.254Z,96702.38
2022-12-17T03:54:44.162Z,96697.72
2022-12-17T03:57:30.180Z,96710.19
2022-12-17T04:00:16.769Z,96702.06
2022-12-17T04:03:02.656Z,96703.75
2022-12-17T04:05:49.129Z,96706.88
2022-12-17T04:08:36.718Z,96714.03
2022-12-17T04:11:38.274Z,96709.53
2022-12-17T04:14:24.543Z,96718.16
2022-12-17T04:17:11.232Z,96722.97
2022-12-17T04:20:11.975Z,96729.47
2022-12-17T04:22:57.922Z,96742.38
2022-12-17T04:25:46.288Z,96742.84
2022-12-17T04:28:32.681Z,96740.34
2022-12-17T04:31:18.923Z,96729.81
2022-12-17T04:34:05.417Z,96748.41
2022-12-17T04:36:51.682Z,96751.19
2022-12-17T04:39:38.206Z,96762.19
2022-12-17T04:42:25.611Z,96770.84
2022-12-17T04:45:11.337Z,96765.19
2022-12-17T04:47:57.302Z,96772.16
2022-12-17T04:50:43.588Z,96782.25
2022-12-17T04:53:30.220Z,96783.25
2022-12-17T04:56:16.270Z,96778.09
2022-12-17T04:59:05.698Z,96781.56
2022-12-17T05:01:52.090Z,96782.41
2022-12-17T05:04:37.985Z,96780.91
2022-12-17T05:07:24.786Z,96780.91
2022-12-17T05:10:10.885Z,96772.41
2022-12-17T05:12:56.824Z,96781.91
2022-12-17T05:15:49.753Z,96784.06
2022-12-17T05:18:39.592Z,96796.22
2022-12-17T05:21:28.111Z,96802.00
2022-12-17T05:24:18.216Z,96809.34
2022-12-17T05:27:04.461Z,96817.47
2022-12-17T05:29:50.893Z,96818.59
2022-12-17T05:32:38.274Z,96823.91
2022-12-17T05:35:25.737Z,96827.88
2022-12-17T05:38:11.995Z,96829.16
2022-12-17T05:40:58.108Z,96833.44
2022-12-17T05:43:43.837Z,96826.75
2022-12-17T05:46:30.230Z,96843.38
2022-12-17T05:49:17.310Z,96841.84
2022-12-17T05:52:03.547Z,96848.16
2022-12-17T05:54:49.636Z,96852.13
2022-12-17T05:57:36.465Z,96852.41
2022-12-17T06:00:23.178Z,96853.41
2022-12-17T06:03:24.656Z,96860.84
2022-12-17T06:06:14.942Z,96866.59
2022-12-17T06:09:01.310Z,96872.50
2022-12-17T06:11:47.085Z,96879.13
2022-12-17T06:14:33.830Z,96878.44
2022-12-17T06:17:20.051Z,96876.59
2022-12-17T06:20:06.248Z,96875.78
2022-12-17T06:22:53.311Z,96879.72
2022-12-17T06:25:39.263Z,96882.53
2022-12-17T06:28:26.209Z,96886.88
2022-12-17T06:31:13.498Z,96894.00
2022-12-17T06:33:59.586Z,96884.81
2022-12-17T06:36:46.397Z,96904.13
2022-12-17T06:39:33.937Z,96889.63
2022-12-17T06:42:19.793Z,96910.00
2022-12-17T06:45:07.082Z,96912.09
2022-12-17T06:47:53.922Z,96915.91
2022-12-17T06:50:39.985Z,96917.47
2022-12-17T06:53:26.824Z,96926.13
2022-12-17T06:56:16.606Z,96932.84
2022-12-17T06:59:02.813Z,96936.56
2022-12-17T07:01:48.743Z,96935.16
2022-12-17T07:04:35.696Z,96946.94
2022-12-17T07:07:21.770Z,96954.22
2022-12-17T07:10:13.845Z,96958.13
2022-12-17T07:13:01.786Z,96951.72
2022-12-17T07:15:47.807Z,96948.19
2022-12-17T07:18:34.015Z,96960.78
2022-12-17T07:21:19.885Z,96967.75
2022-12-17T07:24:11.729Z,96964.97
2022-12-17T07:26:57.761Z,96976.78
2022-12-17T07:29:45.533Z,96986.41
2022-12-17T07:32:31.694Z,96979.53
2022-12-17T07:35:18.276Z,96987.50
2022-12-17T07:38:04.086Z,96995.47
2022-12-17T07:40:50.105Z,96995.47
2022-12-17T07:43:36.775Z,96993.38
2022-12-17T07:46:24.115Z,97004.97
2022-12-17T07:49:10.031Z,97003.56
2022-12-17T07:51:56.385Z,97014.69
2022-12-17T07:54:42.641Z,97018.44
2022-12-17T07:57:28.484Z,97018.00
2022-12-17T08:00:14.490Z,97020.34
2022-12-17T08:03:01.936Z,97028.47
2022-12-17T08:05:48.854Z,97030.56
2022-12-17T08:08:34.560Z,97033.47
2022-12-17T08:11:21.144Z,97043.34
2022-12-17T08:14:07.377Z,97041.16
2022-12-17T08:16:54.329Z,97042.00
2022-12-17T08:19:41.540Z,97045.81
2022-12-17T08:22:28.703Z,97048.47
2022-12-17T08:25:14.918Z,97049.69
2022-12-17T08:28:04.607Z,97055.16
2022-12-17T08:30:57.880Z,97058.50
2022-12-17T08:33:43.767Z,97056.28
2022-12-17T08:36:31.185Z,97059.44
2022-12-17T08:39:17.847Z,97060.56
2022-12-17T08:42:04.695Z,97060.38
2022-12-17T08:45:05.896Z,97077.81
2022-12-17T08:47:52.159Z,97075.84
2022-12-17T08:50:37.998Z,97090.59
2022-12-17T08:53:25.767Z,97106.97
2022-12-17T08:56:11.718Z,97086.84
2022-12-17T08:58:59.399Z,97099.50
2022-12-17T09:01:45.549Z,97090.22
2022-12-17T09:04:32.265Z,97050.69
2022-12-17T09:07:18.257Z,97090.72
2022-12-17T09:10:06.033Z,97093.47
2022-12-17T09:12:51.808Z,97088.19
2022-12-17T09:15:43.718Z,97086.88
2022-12-17T09:18:30.036Z,97092.72
2022-12-17T09:21:16.527Z,97090.25
2022-12-17T09:24:03.016Z,97098.25
2022-12-17T09:26:50.669Z,97098.44
2022-12-17T09:29:37.085Z,97104.13
2022-12-17T09:32:24.471Z,97112.31
2022-12-17T09:35:10.169Z,97112.97
2022-12-17T09:37:56.894Z,97114.31
2022-12-17T09:40:43.384Z,97115.97
2022-12-17T09:43:42.326Z,97120.66
2022-12-17T09:46:38.652Z,97117.47
2022-12-17T09:49:34.722Z,97123.63
2022-12-17T09:52:22.828Z,97126.47
2022-12-17T09:55:10.954Z,97119.31
2022-12-17T09:57:56.702Z,97136.69
2022-12-17T10:00:47.351Z,97129.50
2022-12-17T10:03:36.653Z,97132.97
2022-12-17T10:06:29.336Z,97141.00
2022-12-17T10:09:18.579Z,97142.28
2022-12-17T10:12:05.600Z,97144.78
2022-12-17T10:14:51.818Z,97150.09
2022-12-17T10:17:41.345Z,97145.34
2022-12-17T10:20:36.329Z,97154.97
2022-12-17T10:23:22.888Z,97156.41
2022-12-17T10:26:10.891Z,97151.69
2022-12-17T10:28:57.864Z,97156.50
2022-12-17T10:31:48.389Z,97157.47
2022-12-17T10:34:38.849Z,97160.38
2022-12-17T10:37:25.319Z,97148.06
2022-12-17T10:40:14.641Z,97161.63
2022-12-17T10:43:05.556Z,97150.63
2022-12-17T10:45:53.591Z,97164.28
2022-12-17T10:48:42.158Z,97163.47
2022-12-17T10:51:40.596Z,97157.19
2022-12-17T10:54:35.185Z,97162.38
2022-12-17T10:57:29.835Z,97166.44
2022-12-17T11:00:16.188Z,97165.69
2022-12-17T11:03:07.512Z,97167.09
2022-12-17T11:05:59.651Z,97182.25
2022-12-17T11:08:45.814Z,97182.91
2022-12-17T11:11:39.615Z,97184.53
2022-12-17T11:14:31.308Z,97189.50
2022-12-17T11:17:21.720Z,97189.56
2022-12-17T11:20:13.593Z,97183.31
2022-12-17T11:23:04.742Z,97197.72
2022-12-17T11:26:01.328Z,97200.03
2022-12-17T11:28:48.223Z,97201.13
2022-12-17T11:31:58.201Z,97199.75
2022-12-17T11:34:55.685Z,97206.03
2022-12-17T11:37:47.680Z,97208.97
2022-12-17T11:40:39.587Z,97204.81
2022-12-17T11:43:38.188Z,97210.84
2022-12-17T11:46:34.298Z,97213.19
2022-12-17T11:49:28.393Z,97204.84
2022-12-17T11:52:24.566Z,97206.66
2022-12-17T11:55:19.772Z,97202.97
2022-12-17T11:58:13.845Z,97204.53
2022-12-17T12:01:14.340Z,97200.53
2022-12-17T12:04:09.787Z,97196.41
2022-12-17T12:07:07.609Z,97200.56
2022-12-17T12:10:02.949Z,97181.59
2022-12-17T12:13:00.438Z,97190.91
2022-12-17T12:15:57.782Z,97194.47
2022-12-17T12:19:04.989Z,97197.78
2022-12-17T12:21:58.946Z,97201.72
2022-12-17T12:25:08.458Z,97201.75
2022-12-17T12:28:00.046Z,97192.25
2022-12-17T12:30:52.662Z,97196.97
2022-12-17T12:33:51.865Z,97193.72
2022-12-17T12:36:39.963Z,97198.91
2022-12-17T12:39:31.174Z,97195.59
2022-12-17T12:42:21.676Z,97199.97
2022-12-17T12:45:16.276Z,97179.22
2022-12-17T12:48:13.711Z,97199.75
2022-12-17T12:51:10.296Z,97194.78
2022-12-17T12:53:56.914Z,97199.56
2022-12-17T12:56:48.732Z,97196.25
2022-12-17T12:59:45.052Z,97204.75
2022-12-17T13:02:46.058Z,97200.63
2022-12-17T13:05:34.754Z,97192.47
2022-12-17T13:08:21.060Z,97199.56
2022-12-17T13:11:28.160Z,97209.94
2022-12-17T13:14:05.870Z,97205.00
2022-12-17T13:16:43.281Z,97210.63
2022-12-17T13:19:22.234Z,97205.84
2022-12-17T13:21:51.934Z,97223.06
2022-12-17T13:24:28.869Z,97223.88
2022-12-17T13:26:58.343Z,97230.69
2022-12-17T13:29:30.345Z,97230.50
2022-12-17T13:32:13.746Z,97228.81
2022-12-17T13:34:58.371Z,97229.44
2022-12-17T13:37:36.665Z,97227.75
2022-12-17T13:40:22.018Z,97236.66
2022-12-17T13:42:50.575Z,97241.44
2022-12-17T13:45:23.367Z,97237.69
2022-12-17T13:47:55.909Z,97239.38
2022-12-17T13:50:35.292Z,97253.03
2022-12-17T13:53:11.758Z,97253.41
2022-12-17T13:55:41.811Z,97254.56
2022-12-17T13:58:23.584Z,97250.59
2022-12-17T14:00:52.140Z,97262.56
2022-12-17T14:03:42.860Z,97257.13
2022-12-17T14:06:13.797Z,97262.84
2022-12-17T14:08:43.989Z,97263.78
2022-12-17T14:11:32.698Z,97266.38
2022-12-17T14:14:02.449Z,97276.34
2022-12-17T14:16:31.908Z,97277.19
2022-12-17T14:19:01.207Z,97276.53
2022-12-17T14:21:31.136Z,97276.69
2022-12-17T14:23:59.774Z,97285.47
2022-12-17T14:26:30.933Z,97267.06
2022-12-17T14:28:59.754Z,97282.34
2022-12-17T14:31:29.750Z,97278.91
2022-12-17T14:34:08.193Z,97290.34
2022-12-17T14:36:40.665Z,97289.44
2022-12-17T14:39:19.840Z,97283.59
2022-12-17T14:42:08.089Z,97285.56
2022-12-17T14:44:39.294Z,97294.88
2022-12-17T14:47:15.383Z,97294.13
2022-12-17T14:49:55.756Z,97299.59
2022-12-17T14:52:33.540Z,97295.28
2022-12-17T14:55:02.212Z,97301.66
2022-12-17T14:57:32.747Z,97305.34
2022-12-17T15:00:01.153Z,97306.97
2022-12-17T15:02:31.430Z,97305.31
2022-12-17T15:05:04.290Z,97310.94
2022-12-17T15:07:34.382Z,97315.59
2022-12-17T15:10:11.685Z,97317.59
2022-12-17T15:12:43.101Z,97316.41
2022-12-17T15:15:14.974Z,97318.03
2022-12-17T15:17:44.106Z,97319.78
2022-12-17T15:20:18.917Z,97327.41
2022-12-17T15:22:48.737Z,97331.88
2022-12-17T15:25:22.738Z,97340.78
2022-12-17T15:27:53.612Z,97349.97
2022-12-17T15:30:24.077Z,97345.19
2022-12-17T15:32:54.757Z,97343.78
2022-12-17T15:35:23.161Z,97346.31
2022-12-17T15:37:51.545Z,97347.56
2022-12-17T15:40:29.638Z,97351.59
2022-12-17T15:43:11.137Z,97354.72
2022-12-17T15:45:40.640Z,97348.34
2022-12-17T15:48:10.354Z,97339.50
2022-12-17T15:50:38.981Z,97345.97
2022-12-17T15:53:13.741Z,97359.03
2022-12-17T15:55:44.435Z,97352.00
2022-12-17T15:58:14.220Z,97355.91
2022-12-17T16:00:43.530Z,97360.41
2022-12-17T16:03:12.463Z,97351.19
2022-12-17T16:05:43.740Z,97351.78
2022-12-17T16:08:12.320Z,97353.31
2022-12-17T16:10:41.711Z,97348.16
2022-12-17T16:13:10.613Z,97350.16
2022-12-17T16:15:40.403Z,97354.47
2022-12-17T16:18:09.160Z,97352.06
2022-12-17T16:20:37.984Z,97348.44
2022-12-17T16:23:06.820Z,97351.41
2022-12-17T16:25:35.215Z,97351.00
2022-12-17T16:28:04.460Z,97356.22
2022-12-17T16:30:32.848Z,97354.28
2022-12-17T16:33:02.609Z,97357.81
2022-12-17T16:35:31.774Z,97366.22
2022-12-17T16:38:00.120Z,97361.63
2022-12-17T16:40:29.597Z,97377.72
2022-12-17T16:42:58.330Z,97376.06
2022-12-17T16:45:30.609Z,97382.06
2022-12-17T16:47:59.065Z,97360.56
2022-12-17T16:50:32.415Z,97385.16
2022-12-17T16:53:01.723Z,97385.00
2022-12-17T16:55:30.051Z,97387.97
2022-12-17T16:57:59.168Z,97383.78
2022-12-17T17:00:27.686Z,97383.94
2022-12-17T17:02:56.968Z,97386.88
2022-12-17T17:05:25.452Z,97385.75
2022-12-17T17:07:56.177Z,97375.16
2022-12-17T17:10:24.967Z,97352.22
2022-12-17T17:12:53.711Z,97373.88
2022-12-17T17:15:23.764Z,97381.44
2022-12-17T17:17:54.430Z,97396.09
2022-12-17T17:20:25.516Z,97392.03
2022-12-17T17:22:55.229Z,97375.34
2022-12-17T17:25:43.876Z,97391.16
2022-12-17T17:28:15.500Z,97402.34
2022-12-17T17:30:44.653Z,97414.22
2022-12-17T17:33:13.032Z,97416.88
2022-12-17T17:35:41.978Z,97422.97
2022-12-17T17:38:12.192Z,97413.59
2022-12-17T17:40:40.602Z,97418.91
2022-12-17T17:43:10.948Z,97422.66
2022-12-17T17:45:40.461Z,97435.53
2022-12-17T17:48:08.887Z,97421.13
2022-12-17T17:50:38.888Z,97429.06
2022-12-17T17:53:07.275Z,97425.81
2022-12-17T17:55:37.958Z,97437.38
2022-12-17T17:58:06.322Z,97423.66
2022-12-17T18:00:35.520Z,97430.78
2022-12-17T18:03:04.035Z,97444.69
2022-12-17T18:05:41.628Z,97441.03
2022-12-17T18:08:11.139Z,97450.72
2022-12-17T18:10:41.460Z,97422.34
2022-12-17T18:13:27.117Z,97442.19
2022-12-17T18:16:01.578Z,97451.31
2022-12-17T18:18:30.499Z,97457.81
2022-12-17T18:21:04.776Z,97451.13
2022-12-17T18:23:33.909Z,97453.75
2022-12-17T18:26:08.591Z,97457.13
2022-12-17T18:28:38.652Z,97454.78
2022-12-17T18:31:09.837Z,97474.75
2022-12-17T18:33:39.698Z,97472.69
2022-12-17T18:36:13.773Z,97473.78
2022-12-17T18:38:42.567Z,97474.63
2022-12-17T18:41:32.666Z,97470.19
2022-12-17T18:44:03.685Z,97482.75
2022-12-17T18:46:33.930Z,97459.72
2022-12-17T18:49:05.765Z,97488.59
2022-12-17T18:51:35.579Z,97497.25
2022-12-17T18:54:06.647Z,97498.56
2022-12-17T18:57:00.578Z,97498.94
2022-12-17T18:59:29.768Z,97498.44
2022-12-17T19:01:59.215Z,97502.03
2022-12-17T19:04:28.439Z,97489.56
2022-12-17T19:06:56.957Z,97505.66
2022-12-17T19:09:28.290Z,97477.41
2022-12-17T19:12:01.829Z,97499.63
2022-12-17T19:14:30.779Z,97507.81
2022-12-17T19:16:59.518Z,97512.38
2022-12-17T19:19:29.021Z,97509.84
2022-12-17T19:22:00.288Z,97498.09
2022-12-17T19:24:28.985Z,97517.56
2022-12-17T19:26:59.703Z,97525.50
2022-12-17T19:29:28.098Z,97515.28
2022-12-17T19:31:57.391Z,97522.47
2022-12-17T19:34:25.794Z,97518.41
2022-12-17T19:36:54.927Z,97523.72
2022-12-17T19:39:23.878Z,97527.28
2022-12-17T19:41:52.483Z,97524.88
2022-12-17T19:44:23.211Z,97535.25
2022-12-17T19:46:52.151Z,97531.09
2022-12-17T19:49:20.606Z,97527.47
2022-12-17T19:51:49.861Z,97525.28
2022-12-17T19:54:18.230Z,97532.00
2022-12-17T19:56:47.321Z,97528.81
2022-12-17T19:59:15.817Z,97524.25
2022-12-17T20:01:49.188Z,97489.28
2022-12-17T20:04:18.146Z,97522.09
2022-12-17T20:06:47.701Z,97530.75
2022-12-17T20:09:17.448Z,97528.31
2022-12-17T20:11:47.772Z,97521.16
2022-12-17T20:14:18.368Z,97526.34
2022-12-17T20:16:50.358Z,97516.00
2022-12-17T20:19:21.302Z,97519.59
2022-12-17T20:21:50.291Z,97520.75
2022-12-17T20:24:19.322Z,97526.84
2022-12-17T20:26:50.170Z,97519.88
2022-12-17T20:29:19.007Z,97531.94
2022-12-17T20:31:50.037Z,97531.94
2022-12-17T20:34:20.389Z,97530.47
2022-12-17T20:36:49.338Z,97525.03
2022-12-17T20:39:20.727Z,97534.88
2022-12-17T20:41:52.734Z,97540.41
2022-12-17T20:44:21.180Z,97539.25
2022-12-17T20:46:51.753Z,97537.50
2022-12-17T20:49:20.512Z,97535.47
2022-12-17T20:51:48.879Z,97538.47
2022-12-17T20:54:17.855Z,97519.81
2022-12-17T20:56:46.523Z,97549.84
2022-12-17T20:59:18.109Z,97533.25
2022-12-17T21:01:52.842Z,97536.13
2022-12-17T21:04:26.048Z,97542.41
2022-12-17T21:06:54.700Z,97530.75
2022-12-17T21:09:25.525Z,97534.94
2022-12-17T21:11:54.536Z,97535.56
2022-12-17T21:14:22.973Z,97540.50
2022-12-17T21:16:52.139Z,97555.97
2022-12-17T21:19:21.098Z,97547.19
2022-12-17T21:21:51.107Z,97533.63
2022-12-17T21:24:19.702Z,97559.56
2022-12-17T21:26:48.235Z,97546.91
2022-12-17T21:29:17.647Z,97541.25
2022-12-17T21:31:48.360Z,97561.78
2022-12-17T21:34:18.904Z,97561.78
2022-12-17T21:36:47.845Z,97532.94
2022-12-17T21:39:19.292Z,97557.19
2022-12-17T21:42:08.535Z,97553.56
2022-12-17T21:44:37.546Z,97563.69
2022-12-17T21:47:06.759Z,97552.78
2022-12-17T21:49:35.150Z,97572.25
2022-12-17T21:52:04.441Z,97578.53
2022-12-17T21:54:37.743Z,97572.63
2022-12-17T21:57:06.498Z,97571.41
2022-12-17T21:59:35.603Z,97572.13
2022-12-17T22:02:04.056Z,97581.50
2022-12-17T22:04:32.854Z,97577.75
2022-12-17T22:07:02.476Z,97580.88
2022-12-17T22:09:48.380Z,97578.03
2022-12-17T22:12:41.049Z,97584.34
2022-12-17T22:15:11.189Z,97574.41
2022-12-17T22:17:41.925Z,97564.81
2022-12-17T22:20:12.545Z,97578.50
2022-12-17T22:22:40.931Z,97571.59
2022-12-17T22:25:12.203Z,97575.56
2022-12-17T22:27:43.302Z,97568.47
2022-12-17T22:30:33.950Z,97583.88
2022-12-17T22:33:13.402Z,97575.00
2022-12-17T22:37:05.225Z,97585.91
2022-12-17T22:42:41.477Z,97570.50
2022-12-17T22:44:33.896Z,97584.25
2022-12-17T22:44:53.544Z,97584.75
2022-12-17T22:47:23.400Z,97595.56
2022-12-17T22:49:52.961Z,97602.75
2022-12-17T22:52:22.319Z,97605.53
2022-12-17T22:54:51.668Z,97606.38
2022-12-17T22:57:37.005Z,97608.31
2022-12-17T23:00:17.057Z,97608.44
2022-12-17T23:02:45.599Z,97599.53
2022-12-17T23:05:14.708Z,97597.31
2022-12-17T23:07:43.145Z,97605.13
2022-12-17T23:10:12.550Z,97601.41
2022-12-17T23:12:53.718Z,97614.69
2022-12-17T23:15:30.484Z,97616.75
2022-12-17T23:18:02.156Z,97605.72
2022-12-17T23:20:32.944Z,97607.28
2022-12-17T23:23:02.235Z,97607.53
2022-12-17T23:25:32.394Z,97613.31
2022-12-17T23:28:01.657Z,97608.47
2022-12-17T23:30:31.860Z,97613.66
2022-12-17T23:33:01.117Z,97622.06
2022-12-17T23:35:29.531Z,97611.38
2022-12-17T23:37:58.610Z,97605.56
2022-12-17T23:40:27.934Z,97605.06
2022-12-17T23:42:57.891Z,97609.91
2022-12-17T23:45:26.360Z,97611.09
2022-12-17T23:47:58.530Z,97584.16
2022-12-17T23:50:27.523Z,97608.81
2022-12-17T23:52:55.928Z,97599.41
2022-12-17T23:55:24.849Z,97595.78
2022-12-17T23:57:56.503Z,97601.44
